Time;durP1;ratioP1;P1;durP2;ratioP2;P2;SDS_P1;SDS_P2;PMS_P1;PMS_P2;Temp;Humidity;BMP_temperature;BMP_pressure;BME280_temperature;BME280_humidity;BME280_pressure;Samples;Min_cycle;Max_cycle;Signal;HPM_P1;HPM_P2
2021/05/11 00:01:45;;;;;;;16.90;14.70;;;12.60;99.90;;;;;;5049891;28;20505;-69
2021/05/11 00:04:12;;;;;;;20.57;18.27;;;12.60;99.90;;;;;;5049379;28;20480;-70
2021/05/11 00:06:38;;;;;;;16.70;14.40;;;12.60;99.90;;;;;;5049702;28;20464;-69
2021/05/11 00:09:05;;;;;;;18.70;15.77;;;12.60;99.90;;;;;;5050091;28;20881;-68
2021/05/11 00:11:32;;;;;;;17.37;15.40;;;12.60;99.90;;;;;;5049949;28;20818;-69
2021/05/11 00:13:59;;;;;;;18.03;15.57;;;12.50;99.90;;;;;;5049598;28;20438;-69
2021/05/11 00:16:26;;;;;;;18.20;15.50;;;12.50;99.90;;;;;;5049622;28;20507;-69
2021/05/11 00:18:52;;;;;;;18.07;15.43;;;12.60;99.90;;;;;;5050004;28;20524;-69
2021/05/11 00:21:19;;;;;;;19.30;15.73;;;12.60;99.90;;;;;;5049881;28;20942;-69
2021/05/11 00:23:45;;;;;;;19.67;16.60;;;12.50;99.90;;;;;;5049447;28;20701;-69
2021/05/11 00:26:11;;;;;;;18.63;16.10;;;12.50;99.90;;;;;;5049344;28;20468;-68
2021/05/11 00:28:38;;;;;;;17.97;16.07;;;12.60;99.90;;;;;;5049821;28;20544;-68
2021/05/11 00:31:05;;;;;;;17.50;14.90;;;12.60;99.90;;;;;;5049803;28;20451;-69
2021/05/11 00:33:31;;;;;;;17.80;14.90;;;12.50;99.90;;;;;;5051904;28;21037;-69
2021/05/11 00:35:57;;;;;;;17.90;15.50;;;12.50;99.90;;;;;;5052982;28;20444;-68
2021/05/11 00:38:24;;;;;;;16.37;14.43;;;12.50;99.90;;;;;;5053264;28;20455;-68
2021/05/11 00:40:50;;;;;;;18.87;15.40;;;12.50;99.90;;;;;;5053519;28;20474;-69
2021/05/11 00:43:16;;;;;;;17.27;14.43;;;12.40;99.90;;;;;;5053239;28;20507;-68
2021/05/11 00:45:43;;;;;;;20.90;16.73;;;12.40;99.90;;;;;;5053041;28;20525;-69
2021/05/11 00:48:10;;;;;;;18.70;15.20;;;12.50;99.90;;;;;;5052983;28;20975;-68
2021/05/11 00:50:37;;;;;;;20.30;15.90;;;12.40;99.90;;;;;;5053241;28;20935;-68
2021/05/11 00:53:03;;;;;;;20.10;17.30;;;12.40;99.90;;;;;;5053346;28;20539;-68
2021/05/11 00:55:30;;;;;;;20.50;16.20;;;12.40;99.90;;;;;;5053165;28;20538;-68
2021/05/11 00:57:56;;;;;;;21.40;15.60;;;12.40;99.90;;;;;;5053001;28;20529;-69
2021/05/11 01:00:23;;;;;;;23.73;17.90;;;12.40;99.90;;;;;;5053806;28;20448;-71
2021/05/11 01:02:49;;;;;;;21.73;16.20;;;12.40;99.90;;;;;;5052957;28;20489;-69
2021/05/11 01:05:17;;;;;;;24.70;17.43;;;12.40;99.90;;;;;;5053042;28;20529;-69
2021/05/11 01:07:46;;;;;;;18.27;15.33;;;12.40;99.90;;;;;;5052942;28;21034;-69
2021/05/11 01:10:12;;;;;;;26.23;19.40;;;12.30;99.90;;;;;;5052800;28;20527;-70
2021/05/11 01:12:39;;;;;;;25.87;19.70;;;12.30;99.90;;;;;;5053175;28;20463;-69
2021/05/11 01:15:07;;;;;;;27.80;20.03;;;12.40;99.90;;;;;;5052342;28;20454;-70
2021/05/11 01:17:35;;;;;;;30.70;21.00;;;12.40;99.90;;;;;;5052733;28;20590;-69
2021/05/11 01:20:04;;;;;;;30.37;22.03;;;12.40;99.90;;;;;;5052690;28;20482;-69
2021/05/11 01:22:41;;;;;;;28.60;22.40;;;12.40;99.90;;;;;;5052622;28;20479;-69
2021/05/11 01:25:11;;;;;;;28.00;21.40;;;12.50;99.90;;;;;;5052495;28;20459;-69
2021/05/11 01:27:49;;;;;;;27.43;20.70;;;12.50;99.90;;;;;;5052450;28;20464;-69
2021/05/11 01:30:54;;;;;;;27.90;21.17;;;12.50;99.90;;;;;;5052643;28;20562;-70
2021/05/11 01:47:29;;;;;;;30.60;21.53;;;12.40;99.90;;;;;;5052486;28;20815;-68
2021/05/11 01:50:10;;;;;;;29.50;20.93;;;12.40;99.90;;;;;;5052597;28;20452;-69
2021/05/11 01:52:50;;;;;;;32.83;22.47;;;12.30;99.90;;;;;;5052090;28;20448;-68
2021/05/11 01:55:50;;;;;;;29.63;20.03;;;12.30;99.90;;;;;;5052169;28;20451;-69
2021/05/11 02:22:58;;;;;;;30.53;19.70;;;12.20;99.90;;;;;;5051300;28;20475;-68
2021/05/11 02:25:24;;;;;;;30.37;18.63;;;12.20;99.90;;;;;;5050920;28;20440;-68
2021/05/11 02:27:51;;;;;;;29.20;19.20;;;12.20;99.90;;;;;;5051083;28;20487;-68
2021/05/11 02:30:19;;;;;;;27.60;18.40;;;12.20;99.90;;;;;;5051061;28;20483;-70
2021/05/11 02:32:45;;;;;;;29.30;17.67;;;12.30;99.90;;;;;;5051319;28;20587;-67
2021/05/11 02:35:14;;;;;;;28.87;19.50;;;12.30;99.90;;;;;;5051040;28;20810;-68
2021/05/11 02:37:41;;;;;;;31.97;18.97;;;12.20;99.90;;;;;;5050957;28;20909;-67
2021/05/11 02:40:09;;;;;;;26.80;18.10;;;12.20;99.90;;;;;;5051034;28;20501;-68
2021/05/11 02:42:38;;;;;;;25.83;17.30;;;12.20;99.90;;;;;;5051119;28;20456;-69
2021/05/11 02:45:09;;;;;;;29.53;18.90;;;12.20;99.90;;;;;;5050347;28;20942;-68
2021/05/11 02:47:47;;;;;;;27.37;19.63;;;12.20;99.90;;;;;;5051107;28;20896;-69
2021/05/11 02:50:13;;;;;;;27.00;16.20;;;12.20;99.90;;;;;;5051000;28;20455;-68
2021/05/11 02:52:40;;;;;;;28.27;18.23;;;12.20;99.90;;;;;;5050736;28;20509;-69
2021/05/11 02:55:06;;;;;;;27.83;17.67;;;12.20;99.90;;;;;;5049932;28;20556;-69
2021/05/11 02:57:33;;;;;;;26.77;17.17;;;12.20;99.90;;;;;;5050881;28;20490;-68
2021/05/11 02:59:59;;;;;;;29.53;18.27;;;12.20;99.90;;;;;;5050744;28;20444;-67
2021/05/11 03:02:28;;;;;;;32.93;17.77;;;12.20;99.90;;;;;;5050750;28;20523;-68
2021/05/11 03:04:55;;;;;;;29.60;18.93;;;12.20;99.90;;;;;;5050369;28;20432;-68
2021/05/11 03:07:21;;;;;;;27.93;18.50;;;12.20;99.90;;;;;;5050584;28;20456;-68
2021/05/11 03:09:48;;;;;;;28.77;19.13;;;12.10;99.90;;;;;;5050526;28;20823;-68
2021/05/11 03:12:14;;;;;;;24.53;16.50;;;12.20;99.90;;;;;;5050911;28;21002;-68
2021/05/11 03:14:41;;;;;;;27.23;18.17;;;12.10;99.90;;;;;;5049999;28;20535;-68
2021/05/11 03:17:07;;;;;;;33.80;19.77;;;12.00;99.90;;;;;;5050246;28;21008;-68
2021/05/11 03:19:34;;;;;;;32.93;17.50;;;12.00;99.90;;;;;;5050378;28;20954;-68
2021/05/11 03:22:01;;;;;;;34.57;20.50;;;12.00;99.90;;;;;;5050109;28;20527;-68
2021/05/11 03:24:27;;;;;;;37.20;21.00;;;12.00;99.90;;;;;;5049842;28;21016;-68
2021/05/11 03:26:53;;;;;;;33.63;19.50;;;12.00;99.90;;;;;;5050189;28;20978;-68
2021/05/11 03:29:20;;;;;;;32.77;20.37;;;12.00;99.90;;;;;;5050545;28;20585;-68
2021/05/11 03:31:46;;;;;;;34.70;20.07;;;11.90;99.90;;;;;;5050211;28;20476;-68
2021/05/11 03:34:13;;;;;;;31.87;20.13;;;12.00;99.90;;;;;;5050023;28;20523;-68
2021/05/11 03:36:40;;;;;;;30.40;19.03;;;12.00;99.90;;;;;;5050077;28;20473;-69
2021/05/11 03:39:08;;;;;;;33.17;20.33;;;12.00;99.90;;;;;;5050337;28;20444;-68
2021/05/11 03:41:40;;;;;;;37.77;22.40;;;12.10;99.90;;;;;;5050257;28;20508;-68
2021/05/11 03:44:09;;;;;;;31.23;20.20;;;12.00;99.90;;;;;;5050005;28;20475;-68
2021/05/11 03:46:37;;;;;;;35.70;21.03;;;11.90;99.90;;;;;;5050312;28;20487;-68
2021/05/11 03:49:05;;;;;;;33.17;21.07;;;11.90;99.90;;;;;;5050069;28;20925;-69
2021/05/11 03:51:31;;;;;;;39.57;22.00;;;12.00;99.90;;;;;;5050228;28;20455;-67
2021/05/11 03:53:59;;;;;;;37.40;22.83;;;12.00;99.90;;;;;;5050065;28;20479;-68
2021/05/11 03:56:25;;;;;;;32.93;20.57;;;12.10;99.90;;;;;;5050108;28;20560;-68
2021/05/11 03:58:53;;;;;;;33.83;19.80;;;12.10;99.90;;;;;;5049892;28;20934;-69
2021/05/11 04:01:19;;;;;;;32.33;20.00;;;12.20;99.90;;;;;;5049768;28;20448;-68
2021/05/11 04:03:45;;;;;;;34.13;20.20;;;12.20;99.90;;;;;;5049644;28;20498;-68
2021/05/11 04:06:12;;;;;;;38.27;22.10;;;12.20;99.90;;;;;;5049663;28;20448;-69
2021/05/11 04:08:43;;;;;;;37.60;21.47;;;12.20;99.90;;;;;;5052499;28;20452;-69
2021/05/11 04:11:27;;;;;;;34.60;20.70;;;12.30;99.90;;;;;;5054281;28;20544;-68
2021/05/11 04:16:08;;;;;;;31.40;20.77;;;12.30;99.90;;;;;;5053594;28;20810;-69
2021/05/11 04:17:04;;;;;;;30.07;19.53;;;12.40;99.90;;;;;;5053393;28;20468;-69
2021/05/11 04:19:31;;;;;;;30.53;18.97;;;12.50;99.90;;;;;;5053563;28;20500;-68
2021/05/11 04:21:57;;;;;;;28.50;18.60;;;12.60;99.90;;;;;;5053802;28;20448;-68
2021/05/11 04:24:25;;;;;;;27.40;18.07;;;12.70;99.90;;;;;;5053228;28;20483;-69
2021/05/11 04:26:52;;;;;;;27.77;18.40;;;12.70;99.90;;;;;;5053454;28;20833;-68
2021/05/11 04:29:19;;;;;;;27.90;18.50;;;12.80;99.90;;;;;;5053892;28;20539;-68
2021/05/11 04:31:45;;;;;;;26.57;17.37;;;12.80;99.90;;;;;;5053732;28;20543;-68
2021/05/11 04:34:11;;;;;;;25.07;16.57;;;12.90;99.90;;;;;;5053233;28;20995;-68
2021/05/11 04:36:38;;;;;;;28.63;19.67;;;12.90;99.90;;;;;;5053609;28;20474;-68
2021/05/11 04:39:05;;;;;;;25.93;18.10;;;13.00;99.90;;;;;;5053549;28;20475;-68
2021/05/11 04:41:32;;;;;;;27.50;17.30;;;13.10;99.90;;;;;;5053446;28;20443;-68
2021/05/11 04:44:03;;;;;;;23.03;16.27;;;13.10;99.90;;;;;;5052720;28;21276;-68
2021/05/11 04:46:41;;;;;;;26.40;18.00;;;13.10;99.90;;;;;;5053091;28;20471;-70
2021/05/11 04:49:08;;;;;;;25.67;17.97;;;13.10;99.90;;;;;;5053272;28;20447;-68
2021/05/11 04:51:34;;;;;;;26.60;16.00;;;13.20;99.90;;;;;;5053120;28;20445;-69
2021/05/11 04:54:01;;;;;;;26.50;16.27;;;13.20;99.90;;;;;;5052864;28;20938;-69
2021/05/11 04:56:27;;;;;;;26.53;15.50;;;13.20;99.90;;;;;;5052875;28;20547;-69
2021/05/11 04:58:53;;;;;;;28.07;16.73;;;13.30;99.90;;;;;;5053191;28;20494;-71
2021/05/11 05:01:21;;;;;;;25.33;16.20;;;13.30;99.90;;;;;;5053008;28;20523;-69
2021/05/11 05:03:51;;;;;;;23.80;16.87;;;13.30;99.90;;;;;;5052682;28;20525;-70
2021/05/11 05:06:17;;;;;;;23.43;15.00;;;13.30;99.90;;;;;;5052506;28;20476;-68
2021/05/11 05:08:43;;;;;;;24.07;17.10;;;13.40;99.90;;;;;;5052862;28;20470;-68
2021/05/11 05:11:10;;;;;;;18.33;14.50;;;13.30;99.90;;;;;;5052316;28;20451;-69
2021/05/11 05:13:36;;;;;;;21.83;14.87;;;13.20;99.90;;;;;;5045266;28;20467;-68
2021/05/11 05:16:03;;;;;;;21.90;15.63;;;13.30;99.90;;;;;;5038199;28;20517;-68
2021/05/11 05:18:31;;;;;;;20.90;15.17;;;13.30;99.90;;;;;;5049376;28;20444;-68
2021/05/11 05:20:57;;;;;;;23.27;16.97;;;13.40;99.90;;;;;;5048371;28;20527;-70
2021/05/11 05:23:29;;;;;;;18.30;13.30;;;13.50;99.90;;;;;;5050902;28;20476;-69
2021/05/11 05:26:00;;;;;;;18.90;13.23;;;13.50;99.90;;;;;;5047194;28;20453;-68
2021/05/11 05:28:26;;;;;;;18.63;12.27;;;13.50;99.90;;;;;;5048817;28;20452;-68
2021/05/11 05:30:53;;;;;;;16.83;12.50;;;13.50;99.90;;;;;;5050233;28;20486;-68
2021/05/11 05:33:30;;;;;;;16.43;12.90;;;13.50;99.90;;;;;;5050292;28;20436;-69
2021/05/11 05:35:57;;;;;;;18.17;13.60;;;13.50;99.90;;;;;;5048949;28;20927;-67
2021/05/11 05:38:23;;;;;;;16.00;13.00;;;13.50;99.90;;;;;;5050295;28;20977;-69
2021/05/11 05:40:55;;;;;;;21.53;14.90;;;13.60;99.90;;;;;;5050386;28;20894;-67
2021/05/11 05:43:22;;;;;;;24.80;15.13;;;13.60;99.90;;;;;;5050193;28;20533;-66
2021/05/11 05:45:51;;;;;;;19.57;14.00;;;13.70;99.90;;;;;;5049931;28;20523;-67
2021/05/11 05:48:18;;;;;;;19.57;13.87;;;13.70;99.90;;;;;;5050162;28;20534;-67
2021/05/11 05:50:46;;;;;;;20.60;14.70;;;13.70;99.90;;;;;;5050151;28;20531;-66
2021/05/11 05:53:14;;;;;;;17.40;14.20;;;13.70;99.90;;;;;;5050069;28;20448;-67
2021/05/11 05:55:42;;;;;;;18.40;15.23;;;13.70;99.90;;;;;;5049659;28;20601;-66
2021/05/11 05:58:08;;;;;;;18.50;13.03;;;13.70;99.90;;;;;;5047190;28;20468;-66
2021/05/11 06:00:34;;;;;;;20.53;14.57;;;13.80;99.90;;;;;;5049492;28;20862;-65
2021/05/11 06:03:16;;;;;;;17.63;13.07;;;13.80;99.90;;;;;;5049786;28;20444;-68
2021/05/11 06:05:43;;;;;;;20.03;15.20;;;13.80;99.90;;;;;;5047518;28;20456;-67
2021/05/11 06:08:10;;;;;;;18.77;14.13;;;13.80;99.90;;;;;;5045578;28;20558;-67
2021/05/11 06:10:37;;;;;;;17.83;13.30;;;13.80;99.90;;;;;;5042963;28;20531;-66
2021/05/11 06:13:08;;;;;;;16.10;12.13;;;13.80;99.90;;;;;;5044981;28;20543;-66
2021/05/11 06:18:20;;;;;;;15.80;10.80;;;13.90;99.90;;;;;;5043528;28;20813;-71
2021/05/11 06:20:46;;;;;;;13.20;10.93;;;14.00;99.90;;;;;;5048020;28;20450;-70
2021/05/11 06:23:14;;;;;;;15.10;11.20;;;13.90;99.90;;;;;;5048089;28;20467;-68
2021/05/11 06:25:44;;;;;;;15.80;13.27;;;13.90;99.90;;;;;;5046763;28;20491;-69
2021/05/11 06:28:11;;;;;;;14.67;11.47;;;14.00;99.90;;;;;;5042158;28;20559;-68
2021/05/11 06:30:38;;;;;;;16.73;12.07;;;14.00;99.90;;;;;;5047139;28;20453;-67
2021/05/11 06:33:05;;;;;;;12.17;9.50;;;14.00;99.90;;;;;;5048631;28;20444;-66
2021/05/11 06:35:32;;;;;;;13.70;10.77;;;14.10;99.90;;;;;;5046627;28;20581;-66
2021/05/11 06:38:00;;;;;;;15.37;10.67;;;14.10;99.90;;;;;;5047822;28;20460;-68
2021/05/11 06:40:29;;;;;;;13.50;10.57;;;14.20;99.90;;;;;;5046283;28;20523;-70
2021/05/11 06:42:57;;;;;;;12.77;10.03;;;14.20;99.90;;;;;;5047412;28;20452;-67
2021/05/11 06:48:24;;;;;;;12.63;9.00;;;14.20;99.90;;;;;;4986077;28;20981;-68
2021/05/11 06:53:37;;;;;;;12.20;9.73;;;14.30;99.90;;;;;;5021601;28;20804;-67
2021/05/11 06:56:06;;;;;;;12.47;10.20;;;14.30;99.90;;;;;;5046828;28;20440;-70
2021/05/11 06:58:32;;;;;;;13.03;10.70;;;14.30;99.90;;;;;;5047962;28;20508;-67
2021/05/11 07:00:58;;;;;;;13.13;11.13;;;14.40;99.90;;;;;;5047929;28;20527;-68
2021/05/11 07:03:25;;;;;;;11.90;9.73;;;14.40;99.90;;;;;;5047410;28;21277;-68
2021/05/11 07:05:52;;;;;;;14.37;11.17;;;14.40;99.90;;;;;;5046569;28;20448;-70
2021/05/11 07:08:25;;;;;;;13.43;11.93;;;14.50;99.90;;;;;;5047316;28;20451;-68
2021/05/11 07:10:54;;;;;;;16.27;13.43;;;14.60;99.90;;;;;;5047113;28;20448;-69
2021/05/11 07:13:21;;;;;;;15.27;12.93;;;14.70;99.90;;;;;;5047285;28;20966;-69
2021/05/11 07:15:49;;;;;;;12.37;9.97;;;14.60;99.90;;;;;;5045877;28;20527;-68
2021/05/11 07:18:16;;;;;;;13.10;11.20;;;14.70;99.90;;;;;;5047478;28;20855;-69
2021/05/11 07:20:46;;;;;;;13.03;11.67;;;14.70;99.90;;;;;;5048192;28;20527;-69
2021/05/11 07:23:17;;;;;;;13.73;11.70;;;14.80;99.90;;;;;;5047326;28;20448;-68
2021/05/11 07:25:49;;;;;;;12.47;10.20;;;14.90;99.90;;;;;;5045836;28;21069;-69
2021/05/11 07:31:03;;;;;;;11.47;10.03;;;15.10;99.90;;;;;;5046232;28;20432;-68
2021/05/11 07:33:32;;;;;;;14.37;11.47;;;15.00;99.90;;;;;;5046916;28;20440;-69
2021/05/11 07:35:59;;;;;;;12.40;10.87;;;14.90;99.90;;;;;;5045869;28;20440;-69
2021/05/11 07:38:25;;;;;;;13.30;11.00;;;14.90;99.90;;;;;;5046682;28;20531;-68
2021/05/11 07:40:52;;;;;;;10.93;8.43;;;14.90;99.90;;;;;;5046804;28;20448;-68
2021/05/11 07:43:19;;;;;;;9.60;8.50;;;15.10;99.90;;;;;;5046382;28;20503;-71
2021/05/11 07:46:07;;;;;;;9.33;8.40;;;15.00;99.90;;;;;;5045570;28;20559;-68
2021/05/11 07:48:46;;;;;;;11.00;8.47;;;15.00;99.90;;;;;;5046929;28;20801;-68
2021/05/11 07:51:32;;;;;;;10.97;9.33;;;15.20;99.90;;;;;;5047528;28;20452;-68
2021/05/11 08:02:40;;;;;;;6.90;6.13;;;15.70;99.90;;;;;;5046652;28;20419;-70
2021/05/11 08:05:13;;;;;;;7.93;6.77;;;15.90;99.90;;;;;;5045332;28;20475;-68
2021/05/11 08:10:33;;;;;;;8.60;7.20;;;15.90;99.90;;;;;;5046693;28;20415;-68
2021/05/11 08:15:49;;;;;;;7.60;6.20;;;16.00;99.90;;;;;;5045358;28;20412;-69
2021/05/11 08:18:23;;;;;;;7.43;6.07;;;16.00;99.90;;;;;;5046319;28;20507;-70
2021/05/11 08:29:09;;;;;;;7.13;6.43;;;16.10;99.90;;;;;;5047139;28;20419;-68
2021/05/11 08:31:36;;;;;;;6.90;6.03;;;16.00;99.90;;;;;;5046999;28;20444;-68
2021/05/11 08:34:04;;;;;;;5.83;5.10;;;16.10;99.90;;;;;;5046799;28;20539;-69
2021/05/11 08:36:30;;;;;;;5.70;5.20;;;16.20;99.90;;;;;;5046914;28;21063;-68
2021/05/11 08:38:59;;;;;;;7.10;5.90;;;16.40;99.90;;;;;;5046793;28;20523;-70
2021/05/11 08:41:25;;;;;;;5.67;4.97;;;16.50;99.90;;;;;;5039483;28;20459;-68
2021/05/11 08:43:52;;;;;;;6.37;5.77;;;16.40;99.90;;;;;;5046619;28;20480;-69
2021/05/11 08:46:19;;;;;;;8.07;5.60;;;16.50;99.90;;;;;;5046879;28;20492;-71
2021/05/11 08:48:47;;;;;;;7.20;5.70;;;16.50;99.90;;;;;;5046761;28;20604;-68
2021/05/11 08:51:18;;;;;;;5.80;5.20;;;16.70;99.90;;;;;;5046847;28;20436;-69
2021/05/11 09:05:11;;;;;;;8.13;5.40;;;17.10;99.90;;;;;;5078043;28;20422;-71
2021/05/11 09:07:50;;;;;;;5.10;4.33;;;17.10;99.90;;;;;;5106530;22;20495;-69
2021/05/11 09:27:00;;;;;;;6.50;5.67;;;17.00;99.90;;;;;;5071319;28;20454;-71
2021/05/11 09:29:33;;;;;;;5.50;4.77;;;17.20;99.90;;;;;;5085086;28;20446;-70
2021/05/11 09:32:20;;;;;;;6.90;5.40;;;17.30;99.90;;;;;;5078210;28;20453;-70
2021/05/11 09:35:09;;;;;;;6.70;5.87;;;17.50;99.90;;;;;;5075243;28;20474;-68
2021/05/11 09:57:09;;;;;;;5.60;4.90;;;17.00;99.90;;;;;;5082416;28;20504;-70
2021/05/11 10:31:47;;;;;;;8.30;7.47;;;17.20;99.90;;;;;;5063564;28;20976;-68
2021/05/11 10:48:27;;;;;;;10.37;8.10;;;17.90;99.90;;;;;;5069484;28;20804;-70
2021/05/11 10:50:56;;;;;;;8.80;7.40;;;17.80;99.90;;;;;;5070666;28;20439;-70
2021/05/11 10:53:48;;;;;;;8.97;8.07;;;17.90;99.90;;;;;;5068827;28;20450;-73
2021/05/11 10:56:57;;;;;;;9.30;7.80;;;17.80;99.90;;;;;;5064512;28;20920;-69
2021/05/11 10:59:40;;;;;;;9.50;8.50;;;17.60;99.90;;;;;;5069334;28;20503;-70
2021/05/11 11:02:26;;;;;;;10.23;8.80;;;17.40;99.90;;;;;;5064729;28;20469;-70
2021/05/11 11:04:52;;;;;;;14.60;10.27;;;17.30;99.90;;;;;;5069869;28;20454;-70
2021/05/11 11:07:31;;;;;;;10.10;9.10;;;17.30;99.90;;;;;;5068967;28;20507;-70
2021/05/11 11:09:59;;;;;;;10.37;9.27;;;17.50;99.90;;;;;;5071464;28;20447;-70
2021/05/11 11:12:35;;;;;;;11.27;10.17;;;17.50;99.90;;;;;;5071099;28;20443;-69
2021/05/11 11:15:10;;;;;;;12.43;11.10;;;17.40;99.90;;;;;;5068247;28;20510;-69
2021/05/11 11:17:41;;;;;;;11.97;10.63;;;17.40;99.90;;;;;;5070145;28;20467;-69
2021/05/11 11:20:11;;;;;;;12.67;11.50;;;17.60;99.90;;;;;;5070044;28;20439;-70
2021/05/11 11:25:24;;;;;;;11.43;10.33;;;17.70;99.90;;;;;;5064670;28;20520;-70
2021/05/11 11:27:50;;;;;;;13.17;11.97;;;17.90;99.90;;;;;;5069936;28;20525;-70
2021/05/11 11:30:18;;;;;;;13.43;12.03;;;18.00;99.90;;;;;;5068037;28;20485;-70
2021/05/11 11:32:45;;;;;;;13.47;12.07;;;18.40;99.90;;;;;;5068978;28;20518;-71
2021/05/11 11:35:12;;;;;;;13.03;11.83;;;18.70;99.90;;;;;;5062228;28;20475;-70
2021/05/11 11:37:41;;;;;;;14.40;12.90;;;18.80;99.90;;;;;;5066282;28;20546;-71
2021/05/11 11:40:10;;;;;;;14.43;13.23;;;18.70;99.90;;;;;;5069894;28;20439;-71
2021/05/11 11:42:39;;;;;;;13.53;12.33;;;18.70;99.90;;;;;;5065096;28;20535;-69
2021/05/11 11:45:07;;;;;;;14.63;13.27;;;18.40;99.90;;;;;;5064897;28;20451;-70
2021/05/11 11:47:41;;;;;;;13.27;12.07;;;18.50;99.90;;;;;;5069001;28;20475;-77
2021/05/11 11:50:12;;;;;;;14.80;13.53;;;18.70;99.90;;;;;;5063406;28;20862;-70
2021/05/11 11:52:45;;;;;;;12.77;11.77;;;18.90;99.90;;;;;;5065671;28;20522;-70
2021/05/11 11:55:29;;;;;;;13.53;12.40;;;18.90;99.90;;;;;;5060248;28;20476;-69
2021/05/11 11:57:55;;;;;;;11.87;10.83;;;18.60;99.90;;;;;;5059360;28;20459;-69
2021/05/11 12:00:23;;;;;;;10.87;9.87;;;18.50;99.90;;;;;;5058192;28;20432;-70
2021/05/11 12:02:54;;;;;;;8.43;7.83;;;18.70;99.90;;;;;;5064326;28;20478;-69
2021/05/11 12:05:22;;;;;;;8.63;7.93;;;18.60;99.90;;;;;;5067435;28;20454;-70
2021/05/11 12:08:01;;;;;;;8.63;7.90;;;18.20;99.90;;;;;;5059381;28;20493;-70
2021/05/11 12:10:28;;;;;;;7.83;7.10;;;17.90;99.90;;;;;;5051718;28;20439;-68
2021/05/11 12:12:55;;;;;;;8.77;8.07;;;17.90;99.90;;;;;;5061579;28;20884;-69
2021/05/11 12:15:23;;;;;;;8.20;7.60;;;18.00;99.90;;;;;;5068195;28;20503;-69
2021/05/11 12:18:04;;;;;;;7.43;6.82;;;18.20;99.90;;;;;;5061499;28;20525;-69
2021/05/11 12:20:31;;;;;;;8.20;7.53;;;18.30;99.90;;;;;;5063130;28;20227;-70
2021/05/11 12:23:06;;;;;;;6.70;6.10;;;18.30;99.90;;;;;;5068182;28;20903;-71
2021/05/11 12:25:33;;;;;;;6.97;6.37;;;18.20;99.90;;;;;;5065213;28;20442;-69
2021/05/11 12:28:00;;;;;;;6.30;5.80;;;18.20;99.90;;;;;;5067725;28;20541;-70
2021/05/11 12:30:38;;;;;;;7.30;6.60;;;18.20;99.90;;;;;;5067734;28;20662;-69
2021/05/11 12:33:09;;;;;;;7.60;7.00;;;18.30;99.90;;;;;;5068529;28;20504;-69
2021/05/11 12:35:36;;;;;;;8.43;7.83;;;18.30;99.90;;;;;;5067622;28;20482;-71
2021/05/11 12:38:11;;;;;;;10.13;9.33;;;18.40;99.90;;;;;;5068123;28;20471;-70
2021/05/11 12:41:00;;;;;;;9.87;9.17;;;18.40;99.90;;;;;;5068549;28;20481;-69
2021/05/11 12:43:48;;;;;;;9.43;8.73;;;18.30;99.90;;;;;;5068095;28;20528;-70
2021/05/11 12:46:17;;;;;;;11.37;10.47;;;18.40;99.90;;;;;;5067633;28;20435;-69
2021/05/11 12:48:55;;;;;;;11.70;10.80;;;18.40;99.90;;;;;;5067809;28;20466;-68
2021/05/11 12:51:29;;;;;;;13.27;12.10;;;18.30;99.90;;;;;;5067049;28;20449;-69
2021/05/11 12:53:57;;;;;;;12.87;11.87;;;18.10;99.90;;;;;;5065965;28;20450;-69
2021/05/11 12:56:37;;;;;;;13.23;12.10;;;18.00;99.90;;;;;;5067187;28;20481;-69
2021/05/11 12:59:07;;;;;;;12.17;11.17;;;17.90;99.90;;;;;;5068279;28;20447;-69
2021/05/11 13:01:48;;;;;;;13.00;11.90;;;17.70;99.90;;;;;;5067784;28;20454;-69
2021/05/11 13:15:39;;;;;;;8.63;7.90;;;17.20;99.90;;;;;;5026018;28;20493;-69
2021/05/11 13:21:05;;;;;;;9.30;7.90;;;16.70;99.90;;;;;;5066818;28;20636;-69
2021/05/11 13:26:21;;;;;;;8.90;8.10;;;16.30;99.90;;;;;;5068228;28;20512;-70
2021/05/11 13:28:53;;;;;;;7.60;6.90;;;16.10;99.90;;;;;;5063467;28;20456;-68
2021/05/11 13:31:25;;;;;;;7.70;7.00;;;15.90;99.90;;;;;;5068136;28;20452;-69
2021/05/11 13:33:56;;;;;;;8.03;7.23;;;15.90;99.90;;;;;;5061785;28;20473;-67
2021/05/11 13:36:23;;;;;;;8.50;7.30;;;15.90;99.90;;;;;;5067832;28;20475;-67
2021/05/11 13:38:49;;;;;;;9.20;8.40;;;15.80;99.90;;;;;;5061089;28;20495;-68
2021/05/11 13:41:16;;;;;;;9.90;9.00;;;15.60;99.90;;;;;;5049372;28;20527;-69
2021/05/11 13:43:42;;;;;;;10.13;9.23;;;15.60;99.90;;;;;;5056169;28;20507;-70
2021/05/11 13:46:09;;;;;;;12.20;11.10;;;15.50;99.90;;;;;;5065542;28;20443;-69
2021/05/11 13:48:37;;;;;;;10.97;9.90;;;15.40;99.90;;;;;;5071216;28;20537;-68
2021/05/11 13:51:05;;;;;;;11.60;10.10;;;15.40;99.90;;;;;;5071884;28;20538;-69
2021/05/11 13:53:34;;;;;;;10.10;9.20;;;15.30;99.90;;;;;;5069329;28;20533;-67
2021/05/11 13:56:19;;;;;;;10.00;9.10;;;15.20;99.90;;;;;;5064031;28;20482;-68
2021/05/11 14:04:15;;;;;;;7.90;7.20;;;15.10;99.90;;;;;;5071121;28;20947;-69
2021/05/11 14:06:43;;;;;;;8.07;7.37;;;14.90;99.90;;;;;;5069350;28;20462;-68
2021/05/11 14:09:10;;;;;;;7.67;7.07;;;14.80;99.90;;;;;;5065035;28;20526;-68
2021/05/11 14:11:39;;;;;;;7.97;7.13;;;14.80;99.90;;;;;;5071918;28;20541;-68
2021/05/11 14:14:06;;;;;;;5.60;5.10;;;14.70;99.90;;;;;;5071193;28;20478;-71
2021/05/11 14:16:34;;;;;;;5.70;5.13;;;14.60;99.90;;;;;;5071314;28;20558;-71
2021/05/11 14:19:00;;;;;;;5.20;4.70;;;14.70;99.90;;;;;;5071469;28;20451;-71
2021/05/11 14:21:27;;;;;;;5.63;4.33;;;14.70;99.90;;;;;;5070112;28;20832;-70
2021/05/11 14:23:55;;;;;;;4.93;4.43;;;14.70;99.90;;;;;;5066520;28;20439;-67
2021/05/11 14:26:22;;;;;;;4.27;3.70;;;14.70;99.90;;;;;;5069777;28;20455;-69
2021/05/11 14:28:48;;;;;;;4.53;4.13;;;14.70;99.90;;;;;;5070048;28;20439;-68
2021/05/11 14:31:15;;;;;;;4.60;3.70;;;14.70;99.90;;;;;;5071123;28;21017;-68
2021/05/11 14:33:42;;;;;;;4.10;3.70;;;14.70;99.90;;;;;;5070098;28;20584;-69
2021/05/11 14:36:09;;;;;;;4.37;3.47;;;14.70;99.90;;;;;;5066646;28;20509;-68
2021/05/11 14:38:36;;;;;;;3.97;3.57;;;14.60;99.90;;;;;;5070511;28;20447;-70
2021/05/11 14:41:03;;;;;;;3.53;3.20;;;14.60;99.90;;;;;;5069009;28;20825;-68
2021/05/11 14:43:30;;;;;;;6.10;5.07;;;14.40;99.90;;;;;;5071372;28;20483;-70
2021/05/11 14:45:58;;;;;;;4.33;3.93;;;14.30;99.90;;;;;;5069977;28;20435;-69
2021/05/11 14:48:24;;;;;;;4.53;3.93;;;14.30;99.90;;;;;;5072221;28;20818;-69
2021/05/11 14:50:52;;;;;;;3.90;3.60;;;14.20;99.90;;;;;;5072338;28;20443;-71
2021/05/11 14:53:19;;;;;;;4.83;3.87;;;14.20;99.90;;;;;;5071681;28;20478;-71
2021/05/11 14:55:45;;;;;;;5.70;3.23;;;14.10;99.90;;;;;;5063340;28;20565;-71
2021/05/11 14:58:12;;;;;;;5.93;3.60;;;14.10;99.90;;;;;;5069898;28;20815;-71
2021/05/11 15:00:38;;;;;;;4.50;3.73;;;14.10;99.90;;;;;;5065165;28;20486;-71
2021/05/11 15:03:05;;;;;;;6.73;6.00;;;14.10;99.90;;;;;;5071191;28;20526;-72
2021/05/11 15:05:32;;;;;;;5.37;1.73;;;14.10;99.90;;;;;;5070722;28;20451;-68
2021/05/11 15:07:59;;;;;;;3.10;1.87;;;14.00;99.90;;;;;;5063253;28;20499;-68
2021/05/11 15:10:26;;;;;;;2.77;2.00;;;13.90;99.90;;;;;;5058633;28;20482;-67
2021/05/11 15:12:52;;;;;;;2.00;1.30;;;13.80;99.90;;;;;;5062828;28;20505;-68
2021/05/11 15:15:20;;;;;;;3.90;2.07;;;13.80;99.90;;;;;;5060477;28;20567;-68
2021/05/11 15:18:03;;;;;;;2.63;1.67;;;13.80;99.90;;;;;;5067682;28;20596;-69
2021/05/11 15:20:30;;;;;;;3.70;1.80;;;13.80;99.90;;;;;;5067539;28;20455;-69
2021/05/11 15:22:56;;;;;;;3.27;2.27;;;13.80;99.90;;;;;;5047213;28;20829;-69
2021/05/11 15:25:25;;;;;;;3.80;2.60;;;13.70;99.90;;;;;;5046374;28;20481;-69
2021/05/11 15:27:54;;;;;;;3.30;2.87;;;13.70;99.90;;;;;;5047111;28;20554;-69
2021/05/11 15:30:21;;;;;;;4.00;3.60;;;13.70;99.90;;;;;;5047157;28;20450;-69
2021/05/11 15:32:51;;;;;;;4.27;2.60;;;13.60;99.90;;;;;;5047366;28;21049;-71
2021/05/11 15:35:19;;;;;;;3.60;2.30;;;13.50;99.90;;;;;;5045478;28;20479;-70
2021/05/11 15:37:49;;;;;;;3.00;2.60;;;13.50;99.90;;;;;;5046243;28;20526;-70
2021/05/11 15:40:17;;;;;;;3.20;2.53;;;13.40;99.90;;;;;;5052763;28;20946;-71
2021/05/11 15:42:44;;;;;;;3.33;2.80;;;13.30;99.90;;;;;;5067546;28;20443;-68
2021/05/11 15:45:12;;;;;;;3.70;2.67;;;13.30;99.90;;;;;;5067250;28;20504;-68
2021/05/11 15:47:51;;;;;;;3.20;2.90;;;13.30;99.90;;;;;;5067196;28;20538;-69
2021/05/11 15:50:18;;;;;;;4.23;2.70;;;13.20;99.90;;;;;;5062278;28;20474;-68
2021/05/11 15:52:45;;;;;;;3.23;2.63;;;13.20;99.90;;;;;;5067267;28;20542;-68
2021/05/11 15:55:12;;;;;;;2.57;2.07;;;13.10;99.90;;;;;;5066691;28;20482;-68
2021/05/11 15:57:38;;;;;;;3.17;2.83;;;13.10;99.90;;;;;;5066798;28;20878;-69